Time;durP1;ratioP1;P1;durP2;ratioP2;P2;SDS_P1;SDS_P2;PMS_P1;PMS_P2;Temp;Humidity;BMP_temperature;BMP_pressure;BME280_temperature;BME280_humidity;BME280_pressure;Samples;Min_cycle;Max_cycle;Signal;HPM_P1;HPM_P2
2023/10/25 00:01:38;;;;;;;4.60;2.20;;;10.50;99.90;;;;;;5028452;28;20385;-63
2023/10/25 00:04:05;;;;;;;7.07;2.13;;;10.50;99.90;;;;;;5030015;28;20081;-64
2023/10/25 00:06:33;;;;;;;8.23;2.10;;;10.60;99.90;;;;;;5028066;28;20053;-64
2023/10/25 00:09:00;;;;;;;5.75;2.00;;;10.60;99.90;;;;;;5027884;28;20046;-63
2023/10/25 00:11:27;;;;;;;6.68;2.33;;;10.60;99.90;;;;;;5009988;28;20056;-64
2023/10/25 00:13:53;;;;;;;4.74;1.62;;;10.60;99.90;;;;;;4660166;28;10001335;-64
2023/10/25 00:16:20;;;;;;;5.28;1.90;;;10.70;99.90;;;;;;5006566;28;20054;-63
2023/10/25 00:18:47;;;;;;;8.68;1.98;;;10.60;99.90;;;;;;5025407;28;20060;-63
2023/10/25 00:21:14;;;;;;;5.93;2.63;;;10.70;99.90;;;;;;5027453;28;20041;-63
2023/10/25 00:23:41;;;;;;;7.47;2.17;;;10.70;99.90;;;;;;5026092;28;20372;-63
2023/10/25 00:26:08;;;;;;;6.85;2.30;;;10.70;99.90;;;;;;5027648;28;20056;-63
2023/10/25 00:28:34;;;;;;;8.02;2.90;;;10.70;99.90;;;;;;5027156;28;20484;-63
2023/10/25 00:31:01;;;;;;;12.40;4.13;;;10.70;99.90;;;;;;5027750;28;20045;-65
2023/10/25 00:33:28;;;;;;;6.57;3.63;;;10.60;99.90;;;;;;5034724;28;20041;-63
2023/10/25 00:35:55;;;;;;;8.10;2.80;;;10.70;99.90;;;;;;5036375;28;20530;-63
2023/10/25 00:38:22;;;;;;;6.50;3.05;;;10.60;99.90;;;;;;5012057;28;20718;-62
2023/10/25 00:40:49;;;;;;;6.63;2.42;;;10.60;99.90;;;;;;5028517;28;20049;-63
2023/10/25 00:43:17;;;;;;;10.57;2.97;;;10.60;99.90;;;;;;5023634;28;20041;-62
2023/10/25 00:45:59;;;;;;;4.03;2.55;;;10.60;99.90;;;;;;5027217;28;20045;-63
2023/10/25 00:48:26;;;;;;;8.32;2.72;;;10.60;99.90;;;;;;5027457;28;20072;-64
2023/10/25 00:50:53;;;;;;;6.78;2.80;;;10.60;99.90;;;;;;5027188;28;20052;-63
2023/10/25 00:53:20;;;;;;;9.70;2.65;;;10.60;99.90;;;;;;5010785;28;20052;-63
2023/10/25 00:55:47;;;;;;;9.75;2.75;;;10.70;99.90;;;;;;5003293;28;20104;-63
2023/10/25 00:58:14;;;;;;;10.27;2.13;;;10.70;99.90;;;;;;5031539;28;20082;-63
2023/10/25 01:00:40;;;;;;;12.98;2.42;;;10.70;99.90;;;;;;5030330;28;20111;-64
2023/10/25 01:03:07;;;;;;;7.13;2.70;;;10.70;99.90;;;;;;5017285;28;20050;-63
2023/10/25 01:05:35;;;;;;;8.82;2.05;;;10.80;99.90;;;;;;5033494;28;20107;-63
2023/10/25 01:08:01;;;;;;;11.20;2.90;;;10.80;99.90;;;;;;5034100;28;20087;-63
2023/10/25 01:10:28;;;;;;;6.85;2.40;;;10.80;99.90;;;;;;5044872;28;20049;-63
2023/10/25 01:12:55;;;;;;;8.32;2.25;;;10.70;99.90;;;;;;5013978;28;20037;-63
2023/10/25 01:15:22;;;;;;;7.25;2.47;;;10.70;99.90;;;;;;5008120;28;20053;-62
2023/10/25 01:17:49;;;;;;;9.30;2.58;;;10.60;99.90;;;;;;5047738;28;20045;-62
2023/10/25 01:20:18;;;;;;;5.45;1.67;;;10.60;99.90;;;;;;5040677;28;20053;-62
2023/10/25 01:22:48;;;;;;;6.70;2.20;;;10.60;99.90;;;;;;5033815;28;20129;-61
2023/10/25 01:25:15;;;;;;;8.50;2.20;;;10.70;99.90;;;;;;5016056;28;20507;-63
2023/10/25 01:27:42;;;;;;;10.45;2.70;;;10.70;99.90;;;;;;5031225;28;20520;-63
2023/10/25 01:30:10;;;;;;;6.93;2.80;;;10.70;99.90;;;;;;5030572;28;20054;-63
2023/10/25 01:32:37;;;;;;;9.10;2.33;;;10.60;99.90;;;;;;5028984;28;20049;-63
2023/10/25 01:35:04;;;;;;;7.53;2.25;;;10.70;99.90;;;;;;5015038;28;20088;-63
2023/10/25 01:37:31;;;;;;;6.97;2.20;;;10.70;99.90;;;;;;5030744;28;20045;-64
2023/10/25 01:39:58;;;;;;;6.63;2.80;;;10.70;99.90;;;;;;5030735;28;20366;-64
2023/10/25 01:42:25;;;;;;;8.13;2.65;;;10.70;99.90;;;;;;5030377;28;20073;-63
2023/10/25 01:44:52;;;;;;;6.75;2.58;;;10.70;99.90;;;;;;5010682;28;20049;-64
2023/10/25 01:47:18;;;;;;;4.88;2.53;;;10.70;99.90;;;;;;5030031;28;20438;-65
2023/10/25 01:49:45;;;;;;;7.53;2.38;;;10.70;99.90;;;;;;5030644;28;20266;-63
2023/10/25 01:52:12;;;;;;;9.38;2.53;;;10.70;99.90;;;;;;5029528;28;20083;-63
2023/10/25 01:54:44;;;;;;;10.20;2.75;;;10.70;99.90;;;;;;5029540;28;20167;-64
2023/10/25 01:57:12;;;;;;;6.88;2.75;;;10.70;99.90;;;;;;5029939;28;20087;-63
2023/10/25 01:59:40;;;;;;;3.92;2.08;;;10.70;99.90;;;;;;5010429;28;20100;-65
2023/10/25 02:02:07;;;;;;;6.75;2.53;;;10.70;99.90;;;;;;5023844;28;20137;-63
2023/10/25 02:04:34;;;;;;;8.43;2.97;;;10.70;99.90;;;;;;5028350;28;20059;-64
2023/10/25 02:07:02;;;;;;;7.78;2.47;;;10.70;99.90;;;;;;5029843;28;20096;-64
2023/10/25 02:09:29;;;;;;;9.07;2.70;;;10.60;99.90;;;;;;5029960;28;20075;-63
2023/10/25 02:11:56;;;;;;;8.10;2.45;;;10.70;99.90;;;;;;5029237;28;20049;-63
2023/10/25 02:14:23;;;;;;;9.15;1.98;;;10.70;99.90;;;;;;5028619;28;20042;-66
2023/10/25 02:16:49;;;;;;;5.68;2.05;;;10.80;99.90;;;;;;5029404;28;20147;-64
2023/10/25 02:19:16;;;;;;;12.02;3.97;;;10.80;99.90;;;;;;5030124;28;20159;-64
2023/10/25 02:21:43;;;;;;;6.53;2.00;;;10.80;99.90;;;;;;5029104;28;20041;-63
2023/10/25 02:24:12;;;;;;;7.70;2.35;;;10.70;99.90;;;;;;5022221;28;20057;-64
2023/10/25 02:26:38;;;;;;;7.93;2.20;;;10.70;99.90;;;;;;5028850;28;20578;-63
2023/10/25 02:29:05;;;;;;;10.73;2.85;;;10.70;99.90;;;;;;5029911;28;20057;-64
2023/10/25 02:31:35;;;;;;;6.38;2.50;;;10.70;99.90;;;;;;5027645;28;20046;-63
2023/10/25 02:34:03;;;;;;;7.72;2.38;;;10.70;99.90;;;;;;5029328;28;20053;-63
2023/10/25 02:36:30;;;;;;;7.40;1.85;;;10.70;99.90;;;;;;5011160;28;20056;-63
2023/10/25 02:38:57;;;;;;;9.15;2.25;;;10.80;99.90;;;;;;5028769;28;20060;-63
2023/10/25 02:41:25;;;;;;;11.38;2.30;;;10.80;99.90;;;;;;5022498;28;20385;-63
2023/10/25 02:43:51;;;;;;;4.07;2.65;;;10.80;99.90;;;;;;5028928;28;20069;-63
2023/10/25 02:46:18;;;;;;;8.45;2.63;;;10.80;99.90;;;;;;5029400;28;20398;-63
2023/10/25 02:48:45;;;;;;;7.47;1.92;;;10.80;99.90;;;;;;5028551;28;20060;-63
2023/10/25 02:51:12;;;;;;;5.18;2.28;;;10.80;99.90;;;;;;5017316;28;20052;-63
2023/10/25 02:53:39;;;;;;;10.00;2.10;;;10.80;99.90;;;;;;5021914;28;20041;-63
2023/10/25 02:56:07;;;;;;;7.03;1.88;;;10.80;99.90;;;;;;5016787;28;20088;-63
2023/10/25 02:58:34;;;;;;;4.65;1.58;;;10.80;99.90;;;;;;5019980;28;20056;-63
2023/10/25 03:01:00;;;;;;;8.10;3.13;;;10.80;99.90;;;;;;5028226;28;20045;-63
2023/10/25 03:03:28;;;;;;;9.40;2.08;;;10.80;99.90;;;;;;5028876;28;20385;-63
2023/10/25 03:05:55;;;;;;;4.10;1.40;;;10.80;99.90;;;;;;5028548;28;20075;-63
2023/10/25 03:08:22;;;;;;;5.00;1.40;;;10.80;99.90;;;;;;5028258;28;20045;-64
2023/10/25 03:10:49;;;;;;;4.60;2.08;;;10.70;99.90;;;;;;5028274;28;20042;-63
2023/10/25 03:13:16;;;;;;;10.45;1.90;;;10.80;99.90;;;;;;5028590;28;20049;-63
2023/10/25 03:15:43;;;;;;;6.03;1.52;;;10.80;99.90;;;;;;5027744;28;20057;-64
2023/10/25 03:18:10;;;;;;;4.05;1.27;;;10.80;99.90;;;;;;5029077;28;20128;-63
2023/10/25 03:20:37;;;;;;;2.05;1.23;;;10.70;99.90;;;;;;5013389;28;20305;-64
2023/10/25 03:23:04;;;;;;;10.73;1.90;;;10.80;99.90;;;;;;5028339;28;20056;-62
2023/10/25 03:25:30;;;;;;;3.28;1.10;;;10.80;99.90;;;;;;4998196;28;20414;-63
2023/10/25 03:27:57;;;;;;;4.13;1.35;;;10.80;99.90;;;;;;5028877;28;20416;-64
2023/10/25 03:30:24;;;;;;;3.53;1.42;;;10.80;99.90;;;;;;5009891;28;20076;-62
2023/10/25 03:32:51;;;;;;;2.42;1.00;;;10.80;99.90;;;;;;5028405;28;20045;-63
2023/10/25 03:35:18;;;;;;;6.35;1.10;;;10.80;99.90;;;;;;5027568;28;20050;-62
2023/10/25 03:37:45;;;;;;;3.88;1.23;;;10.80;99.90;;;;;;5028241;28;20095;-63
2023/10/25 03:40:12;;;;;;;5.13;1.63;;;10.90;99.90;;;;;;5025918;28;20463;-62
2023/10/25 03:42:39;;;;;;;6.22;1.10;;;10.90;99.90;;;;;;5019813;28;20042;-66
2023/10/25 03:45:06;;;;;;;2.53;1.10;;;10.80;99.90;;;;;;5024462;28;20077;-62
2023/10/25 03:47:39;;;;;;;2.28;0.85;;;10.90;99.90;;;;;;5033146;28;20057;-62
2023/10/25 03:50:06;;;;;;;2.33;1.00;;;10.90;99.90;;;;;;5027099;28;20124;-61
2023/10/25 03:52:33;;;;;;;9.63;2.55;;;10.90;99.90;;;;;;5028031;28;20053;-62
2023/10/25 03:55:00;;;;;;;3.28;1.30;;;10.90;99.90;;;;;;5027125;28;20111;-62
2023/10/25 03:57:27;;;;;;;6.03;1.25;;;10.90;99.90;;;;;;5028536;28;20084;-62
2023/10/25 03:59:54;;;;;;;2.90;1.25;;;10.90;99.90;;;;;;5010599;28;20052;-62
2023/10/25 04:02:20;;;;;;;3.42;1.08;;;10.80;99.90;;;;;;5027698;28;20455;-63
2023/10/25 04:04:47;;;;;;;5.97;1.08;;;10.80;99.90;;;;;;5025955;28;20056;-63
2023/10/25 04:07:14;;;;;;;7.60;1.30;;;10.80;99.90;;;;;;5028457;28;20050;-63
2023/10/25 04:09:41;;;;;;;4.70;1.00;;;10.90;99.90;;;;;;5028010;28;20572;-63
2023/10/25 04:12:12;;;;;;;2.42;0.95;;;10.90;99.90;;;;;;5027371;28;20049;-63
2023/10/25 04:14:45;;;;;;;4.95;1.38;;;10.80;99.90;;;;;;5027667;28;20080;-63
2023/10/25 04:17:12;;;;;;;2.90;1.13;;;10.80;99.90;;;;;;5027338;28;20130;-63
2023/10/25 04:19:40;;;;;;;3.13;1.20;;;10.80;99.90;;;;;;5010353;28;20046;-63
2023/10/25 04:22:07;;;;;;;3.90;1.13;;;10.80;99.90;;;;;;5026215;28;20504;-63
2023/10/25 04:24:34;;;;;;;4.47;1.65;;;10.90;99.90;;;;;;5027724;28;20103;-63
2023/10/25 04:27:01;;;;;;;3.28;1.20;;;10.80;99.90;;;;;;5027275;28;20045;-63
2023/10/25 04:29:28;;;;;;;5.93;1.60;;;10.90;99.90;;;;;;5027597;28;20440;-63
2023/10/25 04:31:55;;;;;;;11.23;1.50;;;10.80;99.90;;;;;;5024522;28;20496;-63
2023/10/25 04:34:22;;;;;;;5.03;2.08;;;10.80;99.90;;;;;;5027604;28;20092;-63
2023/10/25 04:36:49;;;;;;;2.95;2.17;;;10.90;99.90;;;;;;5027414;28;20291;-64
2023/10/25 04:39:16;;;;;;;6.05;2.25;;;10.80;99.90;;;;;;5027751;28;20080;-63
2023/10/25 04:41:43;;;;;;;4.88;2.15;;;10.90;99.90;;;;;;5022257;28;20050;-63
2023/10/25 04:44:10;;;;;;;4.85;2.42;;;10.80;99.90;;;;;;5015305;28;20049;-63
2023/10/25 04:46:37;;;;;;;5.68;2.67;;;10.80;99.90;;;;;;4995793;28;20124;-63
2023/10/25 04:49:04;;;;;;;6.07;3.72;;;10.90;99.90;;;;;;5027448;28;20073;-63
2023/10/25 04:51:31;;;;;;;6.55;4.53;;;10.90;99.90;;;;;;5019715;28;20049;-63
2023/10/25 04:53:58;;;;;;;7.10;4.40;;;10.90;99.90;;;;;;5026688;28;20087;-63
2023/10/25 04:56:25;;;;;;;12.35;5.25;;;10.90;99.90;;;;;;5026733;28;20050;-63
2023/10/25 04:58:51;;;;;;;10.07;6.63;;;10.90;99.90;;;;;;5023703;28;20161;-62
2023/10/25 05:01:19;;;;;;;8.93;6.30;;;10.90;99.90;;;;;;5017239;28;20140;-62
2023/10/25 05:03:47;;;;;;;10.55;5.75;;;10.90;99.90;;;;;;5026897;28;20053;-62
2023/10/25 05:06:14;;;;;;;15.18;7.03;;;10.90;99.90;;;;;;5027230;28;20045;-62
2023/10/25 05:08:41;;;;;;;10.85;6.32;;;10.90;99.90;;;;;;5026621;28;20046;-62
2023/10/25 05:11:08;;;;;;;9.07;7.53;;;10.90;99.90;;;;;;5019420;28;20200;-64
2023/10/25 05:13:36;;;;;;;12.45;7.07;;;11.00;99.90;;;;;;4985678;28;20069;-64
2023/10/25 05:16:04;;;;;;;14.30;7.80;;;11.00;99.90;;;;;;5026359;28;20057;-64
2023/10/25 05:18:31;;;;;;;11.23;8.82;;;11.00;99.90;;;;;;5026749;28;20136;-63
2023/10/25 05:21:01;;;;;;;14.57;8.63;;;11.00;99.90;;;;;;5019036;28;20054;-63
2023/10/25 05:23:33;;;;;;;13.20;9.13;;;11.00;99.90;;;;;;5017074;28;20091;-64
2023/10/25 05:26:01;;;;;;;19.38;10.20;;;11.00;99.90;;;;;;5009934;28;20108;-64
2023/10/25 05:28:31;;;;;;;13.43;10.25;;;11.00;99.90;;;;;;5015730;28;20128;-64
2023/10/25 05:31:02;;;;;;;21.65;12.60;;;11.00;99.90;;;;;;5021430;28;20061;-64
2023/10/25 05:33:31;;;;;;;20.35;11.52;;;11.00;99.90;;;;;;5026901;28;20519;-65
2023/10/25 05:36:01;;;;;;;19.70;11.57;;;11.00;99.90;;;;;;5027093;28;20053;-65
2023/10/25 05:38:29;;;;;;;16.65;10.85;;;11.00;99.90;;;;;;5020709;28;20088;-64
2023/10/25 05:40:56;;;;;;;16.75;10.98;;;11.00;99.90;;;;;;5030375;28;20071;-65
2023/10/25 05:43:28;;;;;;;16.98;11.65;;;11.10;99.90;;;;;;5012762;28;20107;-64
2023/10/25 05:45:56;;;;;;;19.17;10.38;;;11.00;99.90;;;;;;5020115;28;20049;-64
2023/10/25 05:48:23;;;;;;;13.82;9.85;;;11.10;99.90;;;;;;5020243;28;20092;-64
2023/10/25 05:50:50;;;;;;;17.35;11.00;;;11.10;99.90;;;;;;5029933;28;20107;-64
2023/10/25 05:53:18;;;;;;;19.17;11.15;;;11.10;99.90;;;;;;5029678;28;20103;-64
2023/10/25 05:55:46;;;;;;;13.38;9.10;;;11.10;99.90;;;;;;5026828;28;20045;-66
2023/10/25 05:58:13;;;;;;;18.10;9.25;;;11.10;99.90;;;;;;5018530;28;20607;-64
2023/10/25 06:00:46;;;;;;;13.60;9.80;;;11.10;99.90;;;;;;5029251;28;20132;-64
2023/10/25 06:03:13;;;;;;;30.23;13.10;;;11.10;99.90;;;;;;5031142;28;20107;-63
2023/10/25 06:05:57;;;;;;;19.45;9.15;;;11.10;99.90;;;;;;5005016;28;20049;-64
2023/10/25 06:08:24;;;;;;;15.75;9.25;;;11.10;99.90;;;;;;5007099;28;20073;-63
2023/10/25 06:10:51;;;;;;;16.75;8.43;;;11.10;99.90;;;;;;5028518;28;20489;-63
2023/10/25 06:13:18;;;;;;;14.88;8.07;;;11.10;99.90;;;;;;5030187;28;20050;-63
2023/10/25 06:15:45;;;;;;;13.50;8.15;;;11.10;99.90;;;;;;5029445;28;20069;-62
2023/10/25 06:18:12;;;;;;;10.82;7.20;;;11.10;99.90;;;;;;5018686;28;20050;-63
2023/10/25 06:20:39;;;;;;;17.70;8.45;;;11.10;99.90;;;;;;5023488;28;20049;-63
2023/10/25 06:23:06;;;;;;;14.77;8.13;;;11.10;99.90;;;;;;5029480;28;20060;-62
2023/10/25 06:25:33;;;;;;;16.75;8.15;;;11.10;99.90;;;;;;5029051;28;20037;-63
2023/10/25 06:28:00;;;;;;;13.63;7.78;;;11.20;99.90;;;;;;5020787;28;20081;-63
2023/10/25 06:30:27;;;;;;;17.67;9.05;;;11.10;99.90;;;;;;5018333;28;20096;-62
2023/10/25 06:32:54;;;;;;;16.00;8.80;;;11.10;99.90;;;;;;5029732;28;20057;-63
2023/10/25 06:35:21;;;;;;;14.95;8.52;;;11.10;99.90;;;;;;5011261;28;20484;-63
2023/10/25 06:37:48;;;;;;;15.52;8.27;;;11.20;99.90;;;;;;5028304;28;20492;-63
2023/10/25 06:40:15;;;;;;;17.27;8.02;;;11.10;99.90;;;;;;5010826;28;20042;-63
2023/10/25 06:42:42;;;;;;;14.95;8.52;;;11.20;99.90;;;;;;5022967;28;20061;-63
2023/10/25 06:45:16;;;;;;;18.27;8.13;;;11.20;99.90;;;;;;5028927;28;20566;-63
2023/10/25 06:47:43;;;;;;;17.97;9.20;;;11.20;99.90;;;;;;5011628;28;20095;-63
2023/10/25 06:50:11;;;;;;;19.90;9.60;;;11.20;99.90;;;;;;5028251;28;20045;-63
2023/10/25 06:52:38;;;;;;;14.88;9.40;;;11.20;99.90;;;;;;4680507;28;10001226;-63
2023/10/25 06:55:06;;;;;;;22.02;8.65;;;11.20;99.90;;;;;;5025611;28;20077;-66
2023/10/25 06:57:33;;;;;;;15.48;8.65;;;11.30;99.90;;;;;;5024593;28;20073;-63
2023/10/25 07:00:02;;;;;;;22.73;8.65;;;11.20;99.90;;;;;;5025476;28;20052;-63
2023/10/25 07:02:52;;;;;;;12.30;7.40;;;11.30;99.90;;;;;;5025407;28;20111;-64
2023/10/25 07:05:23;;;;;;;16.30;7.53;;;11.20;99.90;;;;;;5024770;28;20045;-64
2023/10/25 07:07:51;;;;;;;16.88;8.40;;;11.20;99.90;;;;;;5023931;28;20049;-62
2023/10/25 07:10:18;;;;;;;23.83;9.30;;;11.20;99.90;;;;;;5025176;28;20122;-63
2023/10/25 07:12:46;;;;;;;20.40;7.65;;;11.20;99.90;;;;;;5027427;28;20049;-63
2023/10/25 07:15:13;;;;;;;11.75;7.65;;;11.30;99.90;;;;;;5032565;28;20057;-63
2023/10/25 07:17:40;;;;;;;15.23;8.55;;;11.30;99.90;;;;;;5002817;28;20524;-63
2023/10/25 07:20:08;;;;;;;17.45;7.82;;;11.30;99.90;;;;;;5019402;28;20053;-64
2023/10/25 07:22:35;;;;;;;12.00;6.88;;;11.30;99.90;;;;;;5028883;28;20046;-63
2023/10/25 07:25:02;;;;;;;16.38;8.35;;;11.30;99.90;;;;;;5027892;28;20127;-63
2023/10/25 07:27:30;;;;;;;15.77;7.93;;;11.40;99.90;;;;;;5027077;28;20045;-63
2023/10/25 07:29:57;;;;;;;14.40;6.97;;;11.40;99.90;;;;;;5025012;28;20100;-63
2023/10/25 07:32:24;;;;;;;15.32;8.20;;;11.40;99.90;;;;;;5019312;28;20598;-63
2023/10/25 07:34:51;;;;;;;9.82;7.68;;;11.40;99.90;;;;;;5019241;28;20680;-63
2023/10/25 07:37:18;;;;;;;16.70;8.57;;;11.40;99.90;;;;;;5029326;28;20510;-63
2023/10/25 07:39:45;;;;;;;13.23;7.20;;;11.40;99.90;;;;;;5022704;28;20568;-64
2023/10/25 07:42:11;;;;;;;13.98;7.72;;;11.50;99.90;;;;;;5021949;28;20054;-62
2023/10/25 07:44:38;;;;;;;18.00;8.48;;;11.50;99.90;;;;;;5020630;28;20141;-63
2023/10/25 07:47:06;;;;;;;13.85;8.95;;;11.50;99.90;;;;;;5034404;28;20064;-63
2023/10/25 07:49:35;;;;;;;15.63;8.20;;;11.50;99.90;;;;;;5018156;28;20157;-63
2023/10/25 07:52:03;;;;;;;15.60;7.72;;;11.50;99.90;;;;;;5030162;28;20501;-63
2023/10/25 07:54:30;;;;;;;15.30;8.38;;;11.50;99.90;;;;;;5004017;28;20271;-63
2023/10/25 07:56:57;;;;;;;13.57;6.38;;;11.60;99.90;;;;;;5031108;28;20111;-63
2023/10/25 07:59:26;;;;;;;12.18;7.60;;;11.60;99.90;;;;;;5011804;28;20084;-62
2023/10/25 08:01:54;;;;;;;14.90;7.30;;;11.60;99.90;;;;;;5030384;28;20056;-62
2023/10/25 08:04:21;;;;;;;14.20;6.57;;;11.70;99.90;;;;;;5024751;28;20049;-62
2023/10/25 08:06:48;;;;;;;15.10;6.57;;;11.80;99.90;;;;;;5026559;28;20168;-63
2023/10/25 08:09:15;;;;;;;13.75;5.55;;;11.80;99.90;;;;;;5026040;28;20049;-63
2023/10/25 08:11:42;;;;;;;18.40;7.43;;;11.80;99.90;;;;;;5025413;28;20064;-63
2023/10/25 08:14:08;;;;;;;14.55;5.70;;;11.80;99.90;;;;;;5010384;28;20137;-63
2023/10/25 08:16:39;;;;;;;17.23;6.55;;;11.80;99.90;;;;;;5034163;28;20116;-63
2023/10/25 08:19:07;;;;;;;15.45;7.00;;;11.90;99.90;;;;;;5029902;28;20059;-63
2023/10/25 08:21:35;;;;;;;13.32;6.65;;;11.90;99.90;;;;;;5033256;28;20089;-63
2023/10/25 08:24:05;;;;;;;15.75;6.95;;;11.90;99.90;;;;;;5029028;28;20099;-63
2023/10/25 08:26:37;;;;;;;12.95;6.63;;;11.90;99.90;;;;;;5031661;28;20052;-66
2023/10/25 08:29:05;;;;;;;10.85;6.47;;;11.90;99.90;;;;;;5028168;28;20054;-63
2023/10/25 08:31:32;;;;;;;11.43;5.97;;;11.90;99.90;;;;;;5015434;28;20081;-64
2023/10/25 08:34:00;;;;;;;12.70;5.93;;;11.90;99.90;;;;;;5031395;28;20045;-63
2023/10/25 08:36:30;;;;;;;8.82;5.72;;;11.90;99.90;;;;;;5024526;28;20444;-64
2023/10/25 08:38:58;;;;;;;11.70;5.45;;;11.90;99.90;;;;;;5016606;28;20127;-63
2023/10/25 08:41:26;;;;;;;11.82;6.32;;;11.80;99.90;;;;;;5022678;28;20049;-63
2023/10/25 08:43:53;;;;;;;9.88;6.18;;;11.80;99.90;;;;;;5018130;28;20049;-63
2023/10/25 08:46:20;;;;;;;14.02;6.32;;;11.70;99.90;;;;;;5025428;28;20049;-64
2023/10/25 08:48:50;;;;;;;13.20;6.38;;;11.70;99.90;;;;;;5006496;28;20041;-63
2023/10/25 08:51:16;;;;;;;14.15;5.18;;;11.80;99.90;;;;;;5006761;28;20049;-63
2023/10/25 08:53:43;;;;;;;9.43;6.03;;;11.80;99.90;;;;;;4993987;28;20092;-63
2023/10/25 08:56:10;;;;;;;11.23;5.40;;;11.80;99.90;;;;;;4989453;28;20054;-63
2023/10/25 08:58:37;;;;;;;8.63;5.32;;;11.90;99.90;;;;;;5012902;28;20056;-63
2023/10/25 09:01:04;;;;;;;12.68;5.82;;;11.90;99.90;;;;;;5023496;28;20130;-63
2023/10/25 09:03:33;;;;;;;11.75;6.05;;;12.00;99.90;;;;;;5010162;28;20750;-63
2023/10/25 09:06:04;;;;;;;8.88;5.22;;;12.00;99.90;;;;;;5003737;28;20267;-62
2023/10/25 09:08:32;;;;;;;11.52;6.47;;;12.00;99.90;;;;;;5006902;28;20055;-63
2023/10/25 09:11:01;;;;;;;14.52;6.70;;;12.00;99.90;;;;;;5026063;28;20048;-64
2023/10/25 09:13:35;;;;;;;20.98;6.35;;;12.00;99.90;;;;;;5024674;28;20587;-63
2023/10/25 09:16:04;;;;;;;12.45;5.55;;;12.10;99.90;;;;;;5032689;28;20525;-64
2023/10/25 09:18:32;;;;;;;12.60;6.00;;;12.00;99.90;;;;;;5021431;28;20400;-64
2023/10/25 09:20:59;;;;;;;11.88;6.57;;;12.00;99.90;;;;;;5025326;28;20057;-64
2023/10/25 09:23:38;;;;;;;12.75;5.65;;;12.00;99.90;;;;;;5031312;28;20045;-62
2023/10/25 09:26:16;;;;;;;12.88;6.05;;;12.00;99.90;;;;;;5012761;28;20075;-62
2023/10/25 09:28:46;;;;;;;11.70;5.93;;;11.90;99.90;;;;;;5009949;28;20068;-64
2023/10/25 09:31:23;;;;;;;12.15;5.60;;;12.00;99.90;;;;;;5010274;28;20058;-64
2023/10/25 09:33:50;;;;;;;16.85;6.75;;;11.90;99.90;;;;;;5027598;28;20071;-64
2023/10/25 09:36:19;;;;;;;13.40;5.68;;;12.00;99.90;;;;;;5027649;28;20128;-63
2023/10/25 09:38:46;;;;;;;13.90;6.28;;;12.10;99.90;;;;;;5027965;28;20053;-64
2023/10/25 09:41:16;;;;;;;13.45;5.40;;;12.10;99.90;;;;;;5010784;28;20056;-63
2023/10/25 09:43:50;;;;;;;13.98;6.22;;;12.10;99.90;;;;;;5031709;28;20159;-63
2023/10/25 09:46:18;;;;;;;14.23;5.95;;;12.10;99.90;;;;;;5015222;28;20049;-63
2023/10/25 09:49:04;;;;;;;7.22;5.57;;;12.20;99.90;;;;;;5027030;28;20456;-63
2023/10/25 09:51:59;;;;;;;12.75;5.60;;;12.30;99.90;;;;;;5026390;28;20267;-64
2023/10/25 09:54:32;;;;;;;13.73;5.75;;;12.30;99.90;;;;;;5014558;28;20050;-63
2023/10/25 09:56:59;;;;;;;13.32;5.97;;;12.30;99.90;;;;;;5011378;28;20057;-64
2023/10/25 09:59:26;;;;;;;11.45;6.00;;;12.40;99.90;;;;;;5026737;28;20184;-63
2023/10/25 10:01:53;;;;;;;8.93;4.93;;;12.40;99.90;;;;;;5003088;28;20049;-63
2023/10/25 10:04:42;;;;;;;9.05;4.90;;;12.50;99.90;;;;;;5008796;28;20045;-63
2023/10/25 10:07:28;;;;;;;11.07;5.78;;;12.50;99.90;;;;;;5018572;28;20461;-63
2023/10/25 10:10:17;;;;;;;10.90;5.35;;;12.60;99.90;;;;;;5022011;28;20046;-63
2023/10/25 10:12:43;;;;;;;14.00;5.40;;;12.60;99.90;;;;;;5023660;28;20064;-63
2023/10/25 10:15:12;;;;;;;12.45;5.15;;;12.60;99.90;;;;;;5006920;28;20385;-65
2023/10/25 10:17:43;;;;;;;13.15;5.65;;;12.60;99.90;;;;;;5030096;28;20059;-65
2023/10/25 10:20:36;;;;;;;14.00;5.85;;;12.70;99.90;;;;;;5029034;28;20041;-64
2023/10/25 10:23:04;;;;;;;10.30;5.70;;;12.70;99.90;;;;;;5020969;28;20050;-63
2023/10/25 10:25:50;;;;;;;13.20;5.68;;;12.70;99.90;;;;;;5024857;28;20048;-63
2023/10/25 10:28:23;;;;;;;8.40;5.15;;;12.70;99.90;;;;;;5011149;28;20046;-63
2023/10/25 10:30:51;;;;;;;12.07;5.33;;;12.70;99.90;;;;;;5003247;28;20402;-63
2023/10/25 10:33:18;;;;;;;15.63;5.35;;;12.70;99.90;;;;;;5001678;28;20045;-63
2023/10/25 10:35:48;;;;;;;8.73;5.10;;;12.80;99.90;;;;;;5023018;28;20057;-64
2023/10/25 10:38:15;;;;;;;10.55;5.68;;;12.90;99.90;;;;;;5035721;28;20049;-64
2023/10/25 10:40:42;;;;;;;15.82;5.28;;;12.90;99.90;;;;;;5023844;28;20128;-64
2023/10/25 10:43:08;;;;;;;10.70;6.03;;;13.00;99.90;;;;;;5012134;28;20053;-66
2023/10/25 10:45:35;;;;;;;17.52;5.43;;;13.00;99.90;;;;;;5027800;28;20053;-63
2023/10/25 10:48:17;;;;;;;21.08;5.63;;;13.10;99.90;;;;;;5031341;28;20076;-64
2023/10/25 10:50:44;;;;;;;13.07;5.65;;;13.00;99.90;;;;;;5024649;28;20061;-64
2023/10/25 10:53:11;;;;;;;14.63;5.30;;;13.10;99.90;;;;;;5024442;28;20056;-65
2023/10/25 10:55:40;;;;;;;10.80;5.22;;;13.10;99.90;;;;;;5028649;28;20790;-66
2023/10/25 10:58:07;;;;;;;15.70;5.13;;;13.10;99.90;;;;;;5005884;28;20064;-65
2023/10/25 11:00:35;;;;;;;9.35;4.78;;;13.10;99.90;;;;;;5032168;28;20102;-65
2023/10/25 11:03:02;;;;;;;11.30;4.70;;;13.20;99.90;;;;;;5033815;28;20053;-64
2023/10/25 11:05:36;;;;;;;10.57;4.93;;;13.30;99.90;;;;;;5024895;28;20790;-64
2023/10/25 11:08:07;;;;;;;19.48;4.68;;;13.20;99.90;;;;;;4993011;28;20132;-65
2023/10/25 11:10:36;;;;;;;15.32;5.82;;;13.30;99.90;;;;;;5033235;28;20099;-64
2023/10/25 11:13:10;;;;;;;10.98;5.68;;;13.30;99.90;;;;;;5005934;28;20137;-64
2023/10/25 11:15:38;;;;;;;11.32;6.07;;;13.40;99.90;;;;;;5023349;28;20086;-63
2023/10/25 11:18:08;;;;;;;8.07;5.03;;;13.50;99.90;;;;;;5026850;28;20045;-63
2023/10/25 11:20:35;;;;;;;11.70;5.40;;;13.50;99.90;;;;;;5011747;28;20052;-64
2023/10/25 11:23:05;;;;;;;8.23;5.13;;;13.50;99.90;;;;;;5002608;28;20045;-65
2023/10/25 11:25:32;;;;;;;13.40;5.35;;;13.60;99.90;;;;;;5025943;28;20111;-66
2023/10/25 11:27:59;;;;;;;8.02;4.75;;;13.50;99.90;;;;;;5006976;28;20049;-67
2023/10/25 11:30:26;;;;;;;13.13;5.88;;;13.50;99.90;;;;;;5027952;28;20332;-64
2023/10/25 11:32:53;;;;;;;11.55;4.43;;;13.50;99.90;;;;;;5013529;28;20087;-65
2023/10/25 11:35:23;;;;;;;7.45;5.00;;;13.50;99.90;;;;;;5028046;28;20139;-64
2023/10/25 11:37:51;;;;;;;7.90;4.68;;;13.60;99.90;;;;;;5007731;28;20045;-65
2023/10/25 11:40:18;;;;;;;7.72;4.55;;;13.60;99.90;;;;;;5002479;28;20049;-65
2023/10/25 11:42:45;;;;;;;9.23;4.70;;;13.50;99.90;;;;;;4998404;28;20041;-65
2023/10/25 11:45:12;;;;;;;5.82;3.72;;;13.60;99.90;;;;;;5011185;28;20053;-65
2023/10/25 11:47:40;;;;;;;11.73;5.18;;;13.60;99.90;;;;;;4995705;28;20050;-65
2023/10/25 11:50:08;;;;;;;13.43;5.32;;;13.50;99.90;;;;;;5018493;28;20089;-66
2023/10/25 11:52:34;;;;;;;14.63;4.70;;;13.40;99.90;;;;;;5020814;28;20069;-65
2023/10/25 11:55:03;;;;;;;8.63;4.82;;;13.40;99.90;;;;;;5029462;28;20053;-65
2023/10/25 11:57:30;;;;;;;8.98;4.45;;;13.50;99.90;;;;;;5001153;28;20061;-64
2023/10/25 11:59:57;;;;;;;10.15;4.22;;;13.50;99.90;;;;;;5029668;28;20044;-73
2023/10/25 12:02:25;;;;;;;7.20;3.60;;;13.60;99.90;;;;;;5004844;28;20079;-64
2023/10/25 12:04:53;;;;;;;8.25;3.45;;;13.60;99.90;;;;;;5023228;28;20473;-64
2023/10/25 12:07:21;;;;;;;7.93;3.67;;;13.60;99.90;;;;;;5023202;28;20285;-64
2023/10/25 12:09:51;;;;;;;8.70;3.70;;;13.70;99.90;;;;;;5014713;28;20099;-65
2023/10/25 12:12:18;;;;;;;10.25;3.65;;;13.80;99.90;;;;;;5024750;28;20049;-65
2023/10/25 12:14:45;;;;;;;9.38;3.97;;;13.80;99.90;;;;;;5033219;28;20130;-64
2023/10/25 12:17:12;;;;;;;11.25;3.17;;;13.80;99.90;;;;;;5021240;28;20483;-63
2023/10/25 12:19:39;;;;;;;9.13;3.42;;;13.90;99.90;;;;;;5017128;28;20050;-65
2023/10/25 12:22:10;;;;;;;8.55;3.20;;;13.90;99.90;;;;;;5016986;28;20575;-65
2023/10/25 12:24:37;;;;;;;7.13;2.95;;;13.90;99.90;;;;;;5035442;28;20049;-65
2023/10/25 12:27:05;;;;;;;34.85;3.88;;;13.80;99.90;;;;;;5030318;28;20053;-66
2023/10/25 12:29:31;;;;;;;2.90;2.03;;;13.80;99.90;;;;;;5034978;28;20073;-64
2023/10/25 12:31:58;;;;;;;5.43;2.30;;;13.70;99.90;;;;;;5022451;28;20053;-65
2023/10/25 12:34:25;;;;;;;12.20;2.67;;;13.80;99.90;;;;;;5022685;28;20059;-66
2023/10/25 12:36:52;;;;;;;6.00;2.22;;;13.90;99.90;;;;;;5003015;28;20045;-66
2023/10/25 12:39:20;;;;;;;10.60;2.50;;;13.90;99.90;;;;;;5027393;28;20060;-66
2023/10/25 12:41:47;;;;;;;3.95;2.00;;;14.00;99.90;;;;;;5016028;28;20048;-63
2023/10/25 12:44:14;;;;;;;5.75;2.50;;;14.10;99.90;;;;;;5029086;28;20244;-65
2023/10/25 12:46:41;;;;;;;8.43;2.60;;;14.20;99.90;;;;;;5033874;28;20405;-66